Time;durP1;ratioP1;P1;durP2;ratioP2;P2;SDS_P1;SDS_P2;PMS_P1;PMS_P2;Temp;Humidity;BMP_temperature;BMP_pressure;BME280_temperature;BME280_humidity;BME280_pressure;Samples;Min_cycle;Max_cycle;Signal;HPM_P1;HPM_P2
2022/10/10 00:00:24;;;;;;;4.97;4.50;;;8.50;99.90;;;;;;5036497;28;20207;-74
2022/10/10 00:02:50;;;;;;;6.80;5.10;;;8.50;99.90;;;;;;5033570;28;20335;-77
2022/10/10 00:05:15;;;;;;;5.73;5.23;;;8.50;99.90;;;;;;5040147;28;20192;-75
2022/10/10 00:07:41;;;;;;;5.43;4.53;;;8.50;99.90;;;;;;5024647;28;20206;-71
2022/10/10 00:10:07;;;;;;;5.80;4.30;;;8.60;99.90;;;;;;5030096;28;20481;-76
2022/10/10 00:12:33;;;;;;;8.50;5.10;;;8.60;99.90;;;;;;5025013;28;20184;-70
2022/10/10 00:14:59;;;;;;;6.70;5.13;;;8.60;99.90;;;;;;5036408;28;20207;-75
2022/10/10 00:17:24;;;;;;;7.13;4.33;;;8.60;99.90;;;;;;5036452;28;20198;-69
2022/10/10 00:19:50;;;;;;;5.07;4.00;;;8.60;99.90;;;;;;5024869;28;20192;-76
2022/10/10 00:22:16;;;;;;;8.03;4.43;;;8.50;99.90;;;;;;5027037;28;20189;-72
2022/10/10 00:24:42;;;;;;;5.03;4.40;;;8.60;99.90;;;;;;5030426;28;20231;-76
2022/10/10 00:27:07;;;;;;;8.83;4.63;;;8.70;99.90;;;;;;5021829;28;20258;-73
2022/10/10 00:29:33;;;;;;;5.93;4.53;;;8.70;99.90;;;;;;5046699;28;20328;-76
2022/10/10 00:31:59;;;;;;;9.43;5.10;;;8.80;99.90;;;;;;5018405;28;20211;-74
2022/10/10 00:34:25;;;;;;;5.17;4.67;;;9.00;99.90;;;;;;5030279;28;20194;-74
2022/10/10 00:36:50;;;;;;;6.27;4.27;;;9.10;99.90;;;;;;5033498;28;20213;-74
2022/10/10 00:39:16;;;;;;;5.47;4.20;;;9.10;99.90;;;;;;5018301;28;20220;-75
2022/10/10 00:41:42;;;;;;;3.97;3.67;;;9.20;99.90;;;;;;5031799;28;20180;-75
2022/10/10 00:44:11;;;;;;;4.93;3.30;;;9.30;99.90;;;;;;5036134;28;20249;-70
2022/10/10 00:46:37;;;;;;;6.73;4.57;;;9.30;99.90;;;;;;5035843;28;20588;-74
2022/10/10 00:49:09;;;;;;;4.77;3.17;;;9.40;99.90;;;;;;5024497;28;20208;-72
2022/10/10 00:51:35;;;;;;;5.93;4.70;;;9.40;99.90;;;;;;5034433;28;20188;-75
2022/10/10 00:54:05;;;;;;;4.40;4.00;;;9.50;99.90;;;;;;5026648;28;20193;-76
2022/10/10 00:56:39;;;;;;;5.57;4.30;;;9.50;99.90;;;;;;5031242;28;20192;-73
2022/10/10 00:59:09;;;;;;;5.30;4.83;;;9.50;99.90;;;;;;5035794;28;20240;-71
2022/10/10 01:01:36;;;;;;;5.60;4.23;;;9.40;99.90;;;;;;5016593;28;20196;-75
2022/10/10 01:04:02;;;;;;;7.30;4.30;;;9.60;99.90;;;;;;5032682;28;20234;-72
2022/10/10 01:06:29;;;;;;;8.90;4.20;;;9.70;99.90;;;;;;5029253;28;20266;-71
2022/10/10 01:08:55;;;;;;;9.83;5.53;;;9.70;99.90;;;;;;5024938;28;20560;-75
2022/10/10 01:11:24;;;;;;;6.73;3.70;;;9.80;99.90;;;;;;5023771;28;20185;-74
2022/10/10 01:14:17;;;;;;;8.70;4.00;;;9.80;99.90;;;;;;5035277;28;20279;-72
2022/10/10 01:16:59;;;;;;;8.50;4.83;;;9.80;99.90;;;;;;5046014;28;20177;-75
2022/10/10 01:19:36;;;;;;;6.10;3.37;;;9.80;99.90;;;;;;5017987;28;20655;-76
2022/10/10 01:22:23;;;;;;;5.77;4.40;;;9.80;99.90;;;;;;5026754;28;20205;-70
2022/10/10 01:25:26;;;;;;;4.60;3.83;;;9.80;99.90;;;;;;5030300;28;20682;-76
2022/10/10 01:28:11;;;;;;;10.47;4.27;;;9.80;99.90;;;;;;5034370;28;20211;-71
2022/10/10 01:30:39;;;;;;;7.87;4.53;;;9.90;99.90;;;;;;5027325;28;20613;-73
2022/10/10 01:33:26;;;;;;;5.77;5.10;;;9.90;99.90;;;;;;5029416;28;20745;-74
2022/10/10 01:36:02;;;;;;;8.70;4.47;;;9.90;99.90;;;;;;5026906;28;20180;-71
2022/10/10 01:38:49;;;;;;;14.17;4.60;;;10.00;99.90;;;;;;5017795;28;20192;-75
2022/10/10 01:41:29;;;;;;;7.77;4.50;;;10.00;99.90;;;;;;5034288;28;20194;-75
2022/10/10 01:43:57;;;;;;;6.93;4.50;;;10.00;99.90;;;;;;5050595;28;20237;-73
2022/10/10 01:46:24;;;;;;;5.83;3.97;;;10.10;99.90;;;;;;5035560;28;20267;-73
2022/10/10 01:48:53;;;;;;;8.40;4.93;;;10.10;99.90;;;;;;5034867;28;20222;-77
2022/10/10 01:51:56;;;;;;;9.93;5.20;;;10.10;99.90;;;;;;5029407;28;20327;-74
2022/10/10 01:54:49;;;;;;;6.60;4.67;;;10.10;99.90;;;;;;5025110;28;20185;-72
2022/10/10 01:57:36;;;;;;;6.40;4.17;;;10.00;99.90;;;;;;5037733;28;20538;-71
2022/10/10 02:00:10;;;;;;;6.00;4.03;;;10.00;99.90;;;;;;5021821;28;20273;-72
2022/10/10 02:03:01;;;;;;;4.97;4.47;;;10.00;99.90;;;;;;5034712;28;20605;-70
2022/10/10 02:05:59;;;;;;;12.10;4.63;;;10.00;99.90;;;;;;5031305;28;20489;-72
2022/10/10 02:08:49;;;;;;;9.97;4.67;;;10.00;99.90;;;;;;5025202;28;20216;-74
2022/10/10 02:11:15;;;;;;;11.43;4.23;;;10.10;99.90;;;;;;5026273;28;20299;-76
2022/10/10 02:13:43;;;;;;;8.43;5.80;;;10.10;99.90;;;;;;5024757;28;20678;-73
2022/10/10 02:16:14;;;;;;;7.43;4.00;;;10.10;99.90;;;;;;5028021;28;20205;-75
2022/10/10 02:18:44;;;;;;;6.00;3.63;;;10.20;99.90;;;;;;5037632;28;20219;-76
2022/10/10 02:21:12;;;;;;;4.20;3.80;;;10.20;99.90;;;;;;5038590;28;20188;-73
2022/10/10 02:23:41;;;;;;;7.70;4.13;;;10.10;99.90;;;;;;5030948;28;20189;-75
2022/10/10 02:26:11;;;;;;;10.03;4.53;;;10.00;99.90;;;;;;5031973;28;20196;-72
2022/10/10 02:28:46;;;;;;;9.27;5.23;;;10.00;99.90;;;;;;5020860;28;20219;-73
2022/10/10 02:31:20;;;;;;;7.53;4.57;;;10.10;99.90;;;;;;5031132;28;20192;-78
2022/10/10 02:33:55;;;;;;;9.57;5.70;;;10.10;99.90;;;;;;5054137;28;20211;-74
2022/10/10 02:36:22;;;;;;;5.03;4.27;;;10.10;99.90;;;;;;5038551;28;20658;-75
2022/10/10 02:38:50;;;;;;;10.10;4.30;;;10.10;99.90;;;;;;5031973;28;20189;-75
2022/10/10 02:41:18;;;;;;;6.70;5.27;;;10.00;99.90;;;;;;5038394;28;20188;-73
2022/10/10 02:43:44;;;;;;;7.50;4.30;;;10.00;99.90;;;;;;5027583;28;20185;-74
2022/10/10 02:46:12;;;;;;;8.80;4.83;;;10.10;99.90;;;;;;5029129;28;20192;-72
2022/10/10 02:48:38;;;;;;;10.03;4.47;;;10.10;99.90;;;;;;5028639;28;20286;-74
2022/10/10 02:51:06;;;;;;;8.00;5.47;;;10.10;99.90;;;;;;5036770;28;20482;-73
2022/10/10 02:53:35;;;;;;;8.20;5.23;;;10.10;99.90;;;;;;5030947;28;20185;-71
2022/10/10 02:56:01;;;;;;;9.07;5.13;;;10.20;99.90;;;;;;5029646;28;20181;-75
2022/10/10 02:58:26;;;;;;;12.47;4.50;;;10.30;99.90;;;;;;5033296;28;20192;-77
2022/10/10 03:00:52;;;;;;;8.37;5.47;;;10.30;99.90;;;;;;5031461;28;20291;-76
2022/10/10 03:03:19;;;;;;;7.57;5.43;;;10.30;99.90;;;;;;5021160;28;20185;-75
2022/10/10 03:05:44;;;;;;;7.97;5.37;;;10.30;99.90;;;;;;5034192;28;20196;-73
2022/10/10 03:08:10;;;;;;;13.07;5.60;;;10.30;99.90;;;;;;5025080;28;20231;-74
2022/10/10 03:10:36;;;;;;;9.07;5.23;;;10.30;99.90;;;;;;5037842;28;20184;-77
2022/10/10 03:13:02;;;;;;;6.50;5.53;;;10.30;99.90;;;;;;5033175;28;20180;-75
2022/10/10 03:15:28;;;;;;;8.57;4.70;;;10.30;99.90;;;;;;5037320;28;20208;-78
2022/10/10 03:17:53;;;;;;;7.97;4.10;;;10.30;99.90;;;;;;5031755;28;20184;-77
2022/10/10 03:20:19;;;;;;;5.23;4.63;;;10.20;99.90;;;;;;5031209;28;20607;-75
2022/10/10 03:22:45;;;;;;;7.67;4.17;;;10.30;99.90;;;;;;5019082;28;20252;-75
2022/10/10 03:25:10;;;;;;;6.07;4.17;;;10.20;99.90;;;;;;5033115;28;20244;-77
2022/10/10 03:27:36;;;;;;;4.97;4.53;;;10.10;99.90;;;;;;5053079;28;20314;-76
2022/10/10 03:30:04;;;;;;;9.13;5.10;;;10.10;99.90;;;;;;5036538;28;20199;-73
2022/10/10 03:32:29;;;;;;;11.47;5.00;;;10.30;99.90;;;;;;5032089;28;20230;-73
2022/10/10 03:34:55;;;;;;;10.27;4.87;;;10.30;99.90;;;;;;5037322;28;20240;-72
2022/10/10 03:37:21;;;;;;;9.60;5.83;;;10.30;99.90;;;;;;5036933;28;20203;-70
2022/10/10 03:39:47;;;;;;;8.43;4.47;;;10.30;99.90;;;;;;5037510;28;20183;-72
2022/10/10 03:42:13;;;;;;;8.43;4.97;;;10.30;99.90;;;;;;5027344;28;20460;-73
2022/10/10 03:44:39;;;;;;;8.90;4.60;;;10.30;99.90;;;;;;5025638;28;20192;-75
2022/10/10 03:47:04;;;;;;;7.53;4.67;;;10.20;99.90;;;;;;5029868;28;20268;-75
2022/10/10 03:49:30;;;;;;;20.70;5.97;;;10.20;99.90;;;;;;5029287;28;20185;-73
2022/10/10 03:51:56;;;;;;;5.30;4.43;;;10.00;99.90;;;;;;5027556;28;20572;-75
2022/10/10 03:54:22;;;;;;;9.33;5.53;;;10.00;99.90;;;;;;5036942;28;20214;-74
2022/10/10 03:56:47;;;;;;;5.03;4.57;;;9.90;99.90;;;;;;5031803;28;20189;-74
2022/10/10 03:59:13;;;;;;;6.67;5.27;;;9.90;99.90;;;;;;5029248;28;20199;-74
2022/10/10 04:01:39;;;;;;;7.73;5.50;;;9.90;99.90;;;;;;5023919;28;20212;-72
2022/10/10 04:04:05;;;;;;;10.23;5.27;;;10.00;99.90;;;;;;5031546;28;20185;-73
2022/10/10 04:06:31;;;;;;;8.90;5.33;;;10.10;99.90;;;;;;5031652;28;20488;-77
2022/10/10 04:08:56;;;;;;;9.30;5.17;;;10.10;99.90;;;;;;5029388;28;20318;-72
2022/10/10 04:11:25;;;;;;;18.70;6.60;;;10.00;99.90;;;;;;5036594;28;20184;-78
2022/10/10 04:13:51;;;;;;;13.20;6.13;;;10.10;99.90;;;;;;5033762;28;20204;-75
2022/10/10 04:16:16;;;;;;;10.50;5.53;;;10.00;99.90;;;;;;5031455;28;20635;-77
2022/10/10 04:18:42;;;;;;;8.67;5.00;;;10.00;99.90;;;;;;5029396;28;20483;-74
2022/10/10 04:21:10;;;;;;;7.73;5.07;;;9.90;99.90;;;;;;5019505;28;20243;-78
2022/10/10 04:23:35;;;;;;;8.67;4.90;;;10.00;99.90;;;;;;5030720;28;20643;-71
2022/10/10 04:26:01;;;;;;;8.83;4.77;;;9.80;99.90;;;;;;5036423;28;20276;-74
2022/10/10 04:28:27;;;;;;;6.80;4.80;;;9.70;99.90;;;;;;5036007;28;20279;-76
2022/10/10 04:30:55;;;;;;;8.87;4.60;;;9.60;99.90;;;;;;5031809;28;20180;-77
2022/10/10 04:33:21;;;;;;;9.83;5.20;;;9.50;99.90;;;;;;5035061;28;20224;-75
2022/10/10 04:35:49;;;;;;;7.00;4.67;;;9.50;99.90;;;;;;5023542;28;20212;-74
2022/10/10 04:38:15;;;;;;;10.43;5.13;;;9.40;99.90;;;;;;5024793;28;20251;-75
2022/10/10 04:40:40;;;;;;;9.57;4.70;;;9.30;99.90;;;;;;5030648;28;20181;-76
2022/10/10 04:43:06;;;;;;;10.63;4.93;;;9.20;99.90;;;;;;5035801;28;20199;-73
2022/10/10 04:45:32;;;;;;;6.47;5.03;;;9.10;99.90;;;;;;5044944;28;20191;-77
2022/10/10 04:47:57;;;;;;;7.10;4.83;;;9.10;99.90;;;;;;5025704;28;20213;-75
2022/10/10 04:50:24;;;;;;;7.87;5.80;;;9.00;99.90;;;;;;5035896;28;20223;-77
2022/10/10 04:52:49;;;;;;;6.27;4.23;;;9.00;99.90;;;;;;5022987;28;20246;-72
2022/10/10 04:55:15;;;;;;;5.90;4.67;;;8.90;99.90;;;;;;5028756;28;20524;-73
2022/10/10 04:57:41;;;;;;;7.43;5.53;;;8.80;99.90;;;;;;5022868;28;20208;-76
2022/10/10 05:00:08;;;;;;;7.03;5.13;;;8.80;99.90;;;;;;5031566;28;20205;-77
2022/10/10 05:02:34;;;;;;;7.17;5.00;;;8.70;99.90;;;;;;5035608;28;20195;-76
2022/10/10 05:04:59;;;;;;;5.80;5.20;;;8.60;99.90;;;;;;5031263;28;20649;-75
2022/10/10 05:07:25;;;;;;;7.40;4.93;;;8.50;99.90;;;;;;5036931;28;20216;-75
2022/10/10 05:09:51;;;;;;;8.00;4.57;;;8.20;99.90;;;;;;5026829;28;20188;-76
2022/10/10 05:12:17;;;;;;;10.83;4.47;;;7.50;99.90;;;;;;5028082;28;20201;-76
2022/10/10 05:14:42;;;;;;;7.10;4.30;;;6.70;99.90;;;;;;5047290;28;20206;-75
2022/10/10 05:17:08;;;;;;;7.90;5.30;;;6.90;99.90;;;;;;5030745;28;20185;-73
2022/10/10 05:19:34;;;;;;;6.50;4.00;;;-7.10;99.90;;;;;;5034414;28;20203;-72
2022/10/10 05:22:00;;;;;;;6.90;4.77;;;7.90;99.90;;;;;;5035656;28;20192;-74
2022/10/10 05:24:26;;;;;;;5.30;4.77;;;8.40;99.90;;;;;;5051041;28;20240;-73
2022/10/10 05:26:51;;;;;;;7.20;4.43;;;8.30;99.90;;;;;;5050637;28;20191;-69
2022/10/10 05:29:17;;;;;;;9.80;4.87;;;8.30;99.90;;;;;;5050974;28;20267;-74
2022/10/10 05:31:43;;;;;;;4.37;3.97;;;8.30;99.90;;;;;;5034917;28;20194;-70
2022/10/10 05:34:12;;;;;;;12.97;5.73;;;8.20;99.90;;;;;;5017444;28;20182;-70
2022/10/10 05:36:39;;;;;;;7.03;5.70;;;8.20;99.90;;;;;;5025453;28;20212;-69
2022/10/10 05:39:04;;;;;;;7.67;5.53;;;8.20;99.90;;;;;;5026665;28;20179;-69
2022/10/10 05:41:30;;;;;;;8.03;4.57;;;8.20;99.90;;;;;;5027390;28;20484;-68
2022/10/10 05:43:56;;;;;;;10.43;5.00;;;8.10;99.90;;;;;;5028057;28;20203;-69
2022/10/10 05:46:23;;;;;;;7.23;4.70;;;8.30;99.90;;;;;;5030552;28;20221;-69
2022/10/10 05:48:49;;;;;;;6.97;5.20;;;8.30;99.90;;;;;;5039018;28;20204;-70
2022/10/10 05:51:15;;;;;;;7.30;4.50;;;8.40;99.90;;;;;;5030541;28;20229;-69
2022/10/10 05:53:41;;;;;;;9.73;5.10;;;8.40;99.90;;;;;;5049314;28;20183;-69
2022/10/10 05:56:07;;;;;;;9.10;4.47;;;8.40;99.90;;;;;;5029035;28;20612;-67
2022/10/10 05:58:33;;;;;;;6.23;4.77;;;8.40;99.90;;;;;;5031061;28;20183;-69
2022/10/10 06:01:04;;;;;;;7.13;5.77;;;8.50;99.90;;;;;;5028596;28;20250;-70
2022/10/10 06:03:30;;;;;;;5.10;4.60;;;8.50;99.90;;;;;;5038895;28;20633;-68
2022/10/10 06:05:56;;;;;;;6.70;5.03;;;8.60;99.90;;;;;;5038033;28;20325;-68
2022/10/10 06:08:22;;;;;;;10.57;5.70;;;8.50;99.90;;;;;;5031998;28;20277;-66
2022/10/10 06:10:48;;;;;;;7.73;5.17;;;8.50;99.90;;;;;;5052783;28;20271;-69
2022/10/10 06:13:16;;;;;;;9.90;5.47;;;8.60;99.90;;;;;;5020438;28;20248;-67
2022/10/10 06:15:42;;;;;;;15.43;5.70;;;8.60;99.90;;;;;;5033673;28;20207;-68
2022/10/10 06:18:08;;;;;;;8.90;5.37;;;8.60;99.90;;;;;;5033656;28;20197;-67
2022/10/10 06:20:39;;;;;;;8.37;5.63;;;8.70;99.90;;;;;;5037465;28;20275;-74
2022/10/10 06:23:06;;;;;;;11.27;7.67;;;8.80;99.90;;;;;;5035888;28;20207;-68
2022/10/10 06:25:33;;;;;;;8.80;5.20;;;8.80;99.90;;;;;;5029641;28;20676;-68
2022/10/10 06:27:59;;;;;;;6.43;5.00;;;8.90;99.90;;;;;;5036096;28;20207;-68
2022/10/10 06:30:25;;;;;;;13.60;5.50;;;8.90;99.90;;;;;;5026436;28;20536;-68
2022/10/10 06:32:51;;;;;;;6.20;4.80;;;8.90;99.90;;;;;;5051766;28;20233;-69
2022/10/10 06:35:16;;;;;;;6.87;4.90;;;8.90;99.90;;;;;;5037960;28;20184;-68
2022/10/10 06:37:42;;;;;;;6.63;5.30;;;8.90;99.90;;;;;;5034634;28;20193;-73
2022/10/10 06:40:08;;;;;;;8.03;4.50;;;8.90;99.90;;;;;;5025171;28;20199;-70
2022/10/10 06:42:34;;;;;;;5.90;5.30;;;8.90;99.90;;;;;;5038317;28;20187;-69
2022/10/10 06:45:00;;;;;;;8.67;5.57;;;8.90;99.90;;;;;;5029278;28;20246;-69
2022/10/10 06:47:26;;;;;;;7.90;4.70;;;8.90;99.90;;;;;;5025782;28;20204;-67
2022/10/10 06:49:52;;;;;;;4.97;3.77;;;8.90;99.90;;;;;;5028121;28;20524;-68
2022/10/10 06:52:18;;;;;;;13.07;5.00;;;8.90;99.90;;;;;;5031281;28;20178;-67
2022/10/10 06:54:44;;;;;;;5.47;5.03;;;9.00;99.90;;;;;;5038233;28;20195;-73
2022/10/10 06:57:10;;;;;;;10.80;5.67;;;9.00;99.90;;;;;;5037530;28;20184;-67
2022/10/10 06:59:35;;;;;;;7.23;5.40;;;9.00;99.90;;;;;;5036030;28;20536;-69
2022/10/10 07:02:01;;;;;;;10.00;5.33;;;9.00;99.90;;;;;;5021380;28;20215;-72
2022/10/10 07:04:27;;;;;;;11.10;5.33;;;9.00;99.90;;;;;;5037043;28;20180;-69
2022/10/10 07:06:53;;;;;;;5.50;4.97;;;9.10;99.90;;;;;;5036432;28;20183;-67
2022/10/10 07:09:19;;;;;;;10.47;5.47;;;9.10;99.90;;;;;;5031850;28;20208;-70
2022/10/10 07:11:45;;;;;;;7.40;5.37;;;9.20;99.90;;;;;;5032281;28;20176;-67
2022/10/10 07:14:11;;;;;;;5.87;4.83;;;9.20;99.90;;;;;;5037595;28;20176;-68
2022/10/10 07:16:37;;;;;;;11.13;4.93;;;9.20;99.90;;;;;;5037903;28;20176;-68
2022/10/10 07:19:03;;;;;;;9.73;5.17;;;9.20;99.90;;;;;;5037465;28;20584;-68
2022/10/10 07:21:29;;;;;;;5.10;4.63;;;9.10;99.90;;;;;;5037156;28;20271;-69
2022/10/10 07:23:55;;;;;;;8.53;5.33;;;8.50;99.90;;;;;;5036435;28;20267;-68
2022/10/10 07:26:21;;;;;;;10.10;5.60;;;9.00;99.90;;;;;;5037398;28;20569;-69
2022/10/10 07:28:48;;;;;;;9.33;5.80;;;9.70;99.90;;;;;;5042686;28;20234;-68
2022/10/10 07:31:14;;;;;;;10.03;6.20;;;9.80;99.90;;;;;;5020446;28;20188;-69
2022/10/10 07:33:46;;;;;;;5.90;5.10;;;9.90;99.90;;;;;;5026658;28;20491;-68
2022/10/10 07:36:12;;;;;;;6.60;6.00;;;10.10;99.90;;;;;;5030068;28;20185;-68
2022/10/10 07:38:38;;;;;;;11.17;5.10;;;10.30;99.90;;;;;;5032556;28;20180;-73
2022/10/10 07:41:09;;;;;;;9.73;5.50;;;10.30;99.90;;;;;;5052702;28;20195;-76
2022/10/10 07:43:36;;;;;;;6.30;5.43;;;10.40;99.90;;;;;;5031417;28;20184;-75
2022/10/10 07:46:02;;;;;;;9.47;4.77;;;10.40;99.90;;;;;;5032822;28;20177;-73
2022/10/10 07:48:29;;;;;;;8.43;6.03;;;10.50;99.90;;;;;;5029816;28;20205;-73
2022/10/10 07:50:55;;;;;;;9.97;5.40;;;10.60;99.90;;;;;;5030427;28;20181;-74
2022/10/10 07:53:20;;;;;;;6.93;4.93;;;10.70;99.90;;;;;;5028212;28;20179;-75
2022/10/10 07:55:47;;;;;;;6.63;5.13;;;10.90;99.90;;;;;;5036836;28;20189;-76
2022/10/10 07:58:13;;;;;;;11.33;5.27;;;11.00;99.90;;;;;;5035799;28;20490;-75
2022/10/10 08:00:40;;;;;;;5.47;4.83;;;11.10;99.90;;;;;;5031827;28;20207;-75
2022/10/10 08:03:07;;;;;;;9.43;5.23;;;11.40;99.90;;;;;;5028627;28;20264;-73
2022/10/10 08:05:33;;;;;;;6.30;4.67;;;11.30;99.90;;;;;;5022041;28;20172;-74
2022/10/10 08:07:59;;;;;;;7.10;4.43;;;11.50;99.90;;;;;;5030341;28;20339;-75
2022/10/10 08:10:26;;;;;;;13.93;4.67;;;8.50;99.90;;;;;;5035462;28;20278;-72
2022/10/10 08:12:52;;;;;;;10.30;4.03;;;4.90;99.90;;;;;;5036736;28;20169;-75
2022/10/10 08:15:17;;;;;;;6.93;4.20;;;12.30;99.90;;;;;;5032361;28;20640;-74
2022/10/10 08:17:43;;;;;;;7.60;4.50;;;12.30;99.90;;;;;;5036487;28;20219;-73
2022/10/10 08:20:09;;;;;;;8.67;4.43;;;-26.50;99.90;;;;;;5025435;28;20180;-72
2022/10/10 08:22:35;;;;;;;10.90;5.00;;;-22.90;99.90;;;;;;5031606;28;20196;-75
2022/10/10 08:25:01;;;;;;;9.77;3.80;;;-20.30;99.90;;;;;;5036408;28;20274;-76
2022/10/10 08:27:27;;;;;;;7.83;3.87;;;-22.20;99.90;;;;;;5032987;28;20201;-70
2022/10/10 08:29:52;;;;;;;11.97;4.63;;;-25.70;99.90;;;;;;5029892;28;20172;-76
2022/10/10 08:32:18;;;;;;;8.53;4.07;;;5.50;99.90;;;;;;5040242;28;20520;-76
2022/10/10 08:34:44;;;;;;;10.80;4.53;;;-33.50;99.90;;;;;;5032171;28;20173;-77
2022/10/10 08:37:10;;;;;;;12.47;3.87;;;-31.80;99.90;;;;;;5027129;28;20231;-76
2022/10/10 08:39:35;;;;;;;9.10;3.90;;;-32.50;99.90;;;;;;5019687;28;20185;-74
2022/10/10 08:42:02;;;;;;;5.00;3.70;;;-31.80;99.90;;;;;;5031200;28;20265;-75
2022/10/10 08:44:45;;;;;;;5.97;3.30;;;-34.20;99.90;;;;;;5035859;28;20180;-69
2022/10/10 08:47:32;;;;;;;14.27;4.77;;;-40.00;99.90;;;;;;5026798;28;20181;-70
2022/10/10 08:50:22;;;;;;;8.00;3.37;;;-28.20;99.90;;;;;;5031132;28;20264;-71
2022/10/10 08:53:00;;;;;;;8.37;3.20;;;-37.30;99.90;;;;;;5045986;28;20612;-69
2022/10/10 08:55:32;;;;;;;4.73;3.07;;;-33.40;99.90;;;;;;5035768;28;20596;-72
2022/10/10 08:58:29;;;;;;;6.43;3.37;;;-36.20;99.90;;;;;;5029151;28;20311;-71
2022/10/10 09:01:13;;;;;;;5.23;2.93;;;-40.00;99.90;;;;;;5050293;28;20196;-75
2022/10/10 09:03:54;;;;;;;6.17;3.83;;;-31.10;99.90;;;;;;5032607;28;20618;-73
2022/10/10 09:06:44;;;;;;;11.10;4.13;;;-35.70;99.90;;;;;;5033031;28;20184;-70
2022/10/10 09:09:44;;;;;;;8.00;3.70;;;-26.90;99.90;;;;;;5032629;28;20286;-74
2022/10/10 09:12:21;;;;;;;6.47;3.83;;;-28.40;99.90;;;;;;5031555;28;20180;-70
2022/10/10 09:15:19;;;;;;;8.27;3.70;;;15.50;99.90;;;;;;5028682;28;20221;-71
2022/10/10 09:17:54;;;;;;;12.03;3.77;;;15.50;99.90;;;;;;5022644;28;20189;-71
2022/10/10 09:20:37;;;;;;;9.43;4.17;;;15.50;99.90;;;;;;5025374;28;20188;-71
2022/10/10 09:23:10;;;;;;;16.53;5.03;;;15.50;99.90;;;;;;5023629;28;20193;-72
2022/10/10 09:25:41;;;;;;;8.87;3.20;;;15.40;99.90;;;;;;5034654;28;20177;-70
2022/10/10 09:28:32;;;;;;;8.67;3.20;;;15.40;99.90;;;;;;5051052;28;20196;-72
2022/10/10 09:31:01;;;;;;;6.93;2.80;;;15.30;99.90;;;;;;5020119;28;20186;-70
2022/10/10 09:33:38;;;;;;;8.33;3.23;;;15.30;99.90;;;;;;5028199;28;20180;-73
2022/10/10 09:36:11;;;;;;;7.23;3.57;;;15.30;99.90;;;;;;5026489;28;20207;-70
2022/10/10 09:38:56;;;;;;;9.10;4.20;;;15.10;99.90;;;;;;5028655;28;20615;-72
2022/10/10 09:41:40;;;;;;;10.23;3.53;;;15.20;99.90;;;;;;5034263;28;20215;-70
2022/10/10 09:44:10;;;;;;;8.53;3.63;;;15.20;99.90;;;;;;5030514;28;20185;-69
2022/10/10 09:46:37;;;;;;;7.90;3.40;;;15.30;99.90;;;;;;5026567;28;20184;-70
2022/10/10 09:49:04;;;;;;;7.87;3.30;;;15.40;99.90;;;;;;5029833;28;20499;-72
2022/10/10 09:51:31;;;;;;;8.47;3.67;;;15.40;99.90;;;;;;5020869;28;20183;-71
2022/10/10 09:53:58;;;;;;;7.27;2.43;;;15.30;99.90;;;;;;5031332;28;20188;-69
2022/10/10 09:56:28;;;;;;;7.57;3.03;;;15.80;99.90;;;;;;5034887;28;20256;-71
2022/10/10 09:58:54;;;;;;;11.57;3.50;;;15.90;99.90;;;;;;5035123;28;20177;-70
2022/10/10 10:01:27;;;;;;;5.57;3.40;;;16.00;99.90;;;;;;5030876;28;20476;-70
2022/10/10 10:04:16;;;;;;;10.97;3.90;;;16.10;99.90;;;;;;5035123;28;20173;-72
2022/10/10 10:06:50;;;;;;;8.93;3.30;;;16.10;99.90;;;;;;5018404;28;20185;-69
2022/10/10 10:09:19;;;;;;;9.90;3.03;;;14.50;99.90;;;;;;5029072;28;20243;-70
2022/10/10 10:11:48;;;;;;;13.20;3.30;;;16.20;99.90;;;;;;5033547;28;20238;-70
2022/10/10 10:14:43;;;;;;;4.43;2.53;;;16.30;99.90;;;;;;5035109;28;20185;-73
2022/10/10 10:17:12;;;;;;;6.97;3.23;;;16.40;99.90;;;;;;5026551;28;20201;-77
2022/10/10 10:19:47;;;;;;;7.37;2.80;;;16.00;99.90;;;;;;5023553;28;20181;-73
2022/10/10 10:22:33;;;;;;;14.07;3.50;;;14.30;99.90;;;;;;5034044;28;20261;-69
2022/10/10 10:25:19;;;;;;;7.57;2.70;;;16.80;99.90;;;;;;5038770;28;20579;-67
2022/10/10 10:27:45;;;;;;;6.00;2.93;;;16.80;99.90;;;;;;5017211;28;20624;-71
2022/10/10 10:30:24;;;;;;;9.27;3.57;;;16.20;99.90;;;;;;5033337;28;20219;-75
2022/10/10 10:33:29;;;;;;;8.57;3.40;;;16.40;99.90;;;;;;5034037;28;20185;-71
2022/10/10 10:36:07;;;;;;;8.70;3.53;;;17.30;99.90;;;;;;5038389;28;20180;-74
2022/10/10 10:39:05;;;;;;;5.90;3.43;;;17.30;99.90;;;;;;5035474;28;20485;-68
2022/10/10 10:42:05;;;;;;;8.83;3.30;;;17.30;99.90;;;;;;5027712;28;20204;-67
2022/10/10 10:44:48;;;;;;;9.53;2.93;;;17.50;99.90;;;;;;5032268;28;20187;-68
2022/10/10 10:47:41;;;;;;;11.07;2.70;;;17.40;99.90;;;;;;5027875;28;20176;-68
2022/10/10 10:50:21;;;;;;;5.73;3.13;;;-24.90;99.90;;;;;;5033313;28;20184;-68
2022/10/10 10:53:21;;;;;;;8.53;3.73;;;11.80;99.90;;;;;;5034971;28;20587;-68
2022/10/10 10:55:55;;;;;;;7.37;2.40;;;18.10;99.90;;;;;;5033273;28;20670;-68
2022/10/10 10:58:27;;;;;;;15.30;3.83;;;18.20;99.90;;;;;;5036791;28;20195;-67
2022/10/10 11:01:00;;;;;;;6.13;3.83;;;-40.00;98.80;;;;;;5019688;28;20200;-67
2022/10/10 11:03:44;;;;;;;11.47;2.33;;;-40.00;98.10;;;;;;5020566;28;20196;-69
2022/10/10 11:06:36;;;;;;;9.13;2.93;;;-39.30;97.60;;;;;;5031227;28;20192;-69
2022/10/10 11:09:43;;;;;;;10.23;4.27;;;-37.60;99.30;;;;;;5023670;28;20624;-69
2022/10/10 11:12:46;;;;;;;6.83;2.97;;;-31.70;98.90;;;;;;5006251;28;20189;-69
2022/10/10 11:15:35;;;;;;;5.60;2.10;;;-22.80;99.90;;;;;;5033110;28;20540;-68
2022/10/10 11:18:24;;;;;;;5.27;2.17;;;-34.80;99.20;;;;;;5030240;28;20319;-69
2022/10/10 11:21:17;;;;;;;13.23;4.53;;;-37.70;97.70;;;;;;5037409;28;20179;-68
2022/10/10 11:24:12;;;;;;;8.97;3.90;;;-27.40;99.90;;;;;;5027169;28;20192;-69
2022/10/10 11:26:53;;;;;;;8.17;2.80;;;-40.00;97.00;;;;;;5024392;28;20189;-71
2022/10/10 11:29:34;;;;;;;7.63;2.93;;;-38.50;97.50;;;;;;5032183;28;20227;-68
2022/10/10 11:32:14;;;;;;;5.13;2.73;;;-36.30;96.70;;;;;;5027458;28;20276;-71
2022/10/10 11:35:00;;;;;;;10.40;5.60;;;17.80;99.90;;;;;;5033307;28;20176;-70
2022/10/10 11:37:30;;;;;;;8.30;3.20;;;18.40;99.90;;;;;;5036248;28;20193;-68
2022/10/10 11:40:01;;;;;;;11.27;2.90;;;18.30;99.90;;;;;;5033717;28;20180;-68
2022/10/10 11:42:43;;;;;;;17.97;4.27;;;18.20;99.90;;;;;;5029724;28;20178;-67
2022/10/10 11:45:15;;;;;;;11.50;3.30;;;18.20;99.90;;;;;;5024272;28;20180;-69
2022/10/10 11:47:56;;;;;;;13.40;3.50;;;17.90;99.90;;;;;;5031391;28;20208;-67
2022/10/10 11:50:27;;;;;;;10.47;4.00;;;17.30;99.90;;;;;;5036547;28;20234;-69
2022/10/10 11:53:25;;;;;;;7.17;3.63;;;16.00;99.90;;;;;;5030487;28;20185;-67
2022/10/10 11:55:59;;;;;;;14.07;5.97;;;16.00;99.90;;;;;;5026716;28;20189;-70
2022/10/10 11:58:47;;;;;;;9.00;3.03;;;16.00;99.90;;;;;;5028565;28;20180;-69
2022/10/10 12:01:26;;;;;;;11.33;4.47;;;16.20;99.90;;;;;;5040805;28;20207;-67
2022/10/10 12:03:52;;;;;;;8.67;3.23;;;15.80;99.90;;;;;;5036783;28;20486;-69
2022/10/10 12:06:46;;;;;;;8.80;2.93;;;16.10;99.90;;;;;;5032024;28;20188;-72
2022/10/10 12:09:27;;;;;;;10.47;4.53;;;16.60;99.90;;;;;;5028654;28;20216;-67
2022/10/10 12:12:02;;;;;;;9.37;4.00;;;16.50;99.90;;;;;;5025585;28;20181;-69
2022/10/10 12:14:30;;;;;;;15.73;4.90;;;17.70;99.90;;;;;;5029704;28;20200;-68
2022/10/10 12:16:57;;;;;;;12.30;4.20;;;17.90;99.90;;;;;;5024812;28;20173;-69
2022/10/10 12:19:26;;;;;;;14.33;3.90;;;17.70;99.90;;;;;;5023874;28;20734;-71
2022/10/10 12:21:59;;;;;;;12.13;4.40;;;17.90;99.90;;;;;;5022416;28;20584;-68
2022/10/10 12:24:37;;;;;;;13.43;4.13;;;17.90;99.90;;;;;;5048948;28;20267;-70
2022/10/10 12:27:02;;;;;;;16.10;5.20;;;17.90;99.90;;;;;;5036001;28;20184;-69
2022/10/10 12:29:56;;;;;;;14.83;4.33;;;17.90;99.90;;;;;;5030747;28;20280;-69
2022/10/10 12:32:25;;;;;;;6.40;3.20;;;17.80;99.90;;;;;;5031101;28;20189;-68
2022/10/10 12:34:51;;;;;;;8.50;3.83;;;17.90;99.90;;;;;;5031001;28;20195;-73
2022/10/10 12:37:29;;;;;;;12.27;4.43;;;17.90;99.90;;;;;;5031019;28;20302;-70
2022/10/10 12:40:07;;;;;;;5.37;3.77;;;17.70;99.90;;;;;;5030013;28;20580;-69
2022/10/10 12:43:01;;;;;;;10.73;3.73;;;17.60;99.90;;;;;;5025272;28;20589;-69
2022/10/10 12:45:30;;;;;;;7.60;3.90;;;17.90;99.90;;;;;;5032826;28;20270;-68
2022/10/10 12:48:00;;;;;;;9.80;4.30;;;17.90;99.90;;;;;;5035910;28;20208;-65
2022/10/10 12:50:33;;;;;;;8.90;4.03;;;18.00;99.90;;;;;;5035964;28;20173;-69
2022/10/10 12:53:20;;;;;;;10.17;4.53;;;18.10;99.90;;;;;;5035752;28;20173;-70
2022/10/10 12:55:49;;;;;;;10.23;4.50;;;18.30;99.90;;;;;;5039841;28;20475;-70
2022/10/10 12:58:18;;;;;;;5.40;3.27;;;18.40;99.90;;;;;;5020415;28;20227;-68
2022/10/10 13:00:46;;;;;;;6.80;4.57;;;18.40;99.90;;;;;;5024407;28;20216;-71
2022/10/10 13:03:25;;;;;;;9.53;3.57;;;18.50;99.90;;;;;;5026016;28;20184;-69
2022/10/10 13:05:52;;;;;;;8.00;3.90;;;18.60;99.90;;;;;;5024371;28;20173;-71
2022/10/10 13:08:23;;;;;;;11.00;4.00;;;17.10;99.90;;;;;;5028711;28;20629;-70
2022/10/10 13:11:15;;;;;;;6.93;3.77;;;19.30;99.90;;;;;;5029347;28;20588;-71